createdAt,value
2019-03-05T00:01:49.505Z,980.84
2019-03-05T00:03:49.079Z,980.66
2019-03-05T00:05:49.113Z,981.00
2019-03-05T00:07:49.329Z,980.94
2019-03-05T00:09:49.953Z,980.86
2019-03-05T00:11:49.569Z,980.62
2019-03-05T00:13:49.367Z,981.17
2019-03-05T00:15:49.378Z,980.66
2019-03-05T00:17:49.194Z,980.92
2019-03-05T00:19:49.395Z,981.35
2019-03-05T00:21:49.610Z,981.04
2019-03-05T00:23:49.213Z,980.85
2019-03-05T00:25:49.434Z,980.83
2019-03-05T00:27:49.446Z,980.91
2019-03-05T00:29:49.351Z,980.99
2019-03-05T00:31:49.361Z,980.67
2019-03-05T00:33:49.583Z,981.14
2019-03-05T00:35:49.390Z,981.23
2019-03-05T00:37:49.297Z,980.64
2019-03-05T00:39:49.294Z,980.95
2019-03-05T00:41:49.279Z,980.68
2019-03-05T00:43:49.317Z,981.03
2019-03-05T00:45:49.542Z,980.93
2019-03-05T00:47:49.562Z,980.68
2019-03-05T00:49:49.340Z,980.57
2019-03-05T00:51:49.468Z,981.16
2019-03-05T00:53:49.202Z,980.96
2019-03-05T00:55:50.005Z,980.94
2019-03-05T00:57:49.414Z,980.99
2019-03-05T00:59:49.609Z,980.79
2019-03-05T01:01:49.433Z,980.84
2019-03-05T01:03:49.449Z,981.10
2019-03-05T01:05:49.464Z,980.90
2019-03-05T01:07:49.475Z,980.53
2019-03-05T01:09:49.482Z,981.18
2019-03-05T01:11:49.390Z,980.88
2019-03-05T01:13:49.197Z,981.11
2019-03-05T01:15:49.206Z,981.04
2019-03-05T01:17:49.160Z,981.15
2019-03-05T01:19:49.236Z,981.16
2019-03-05T01:21:49.243Z,981.35
2019-03-05T01:23:49.210Z,981.04
2019-03-05T01:25:49.678Z,981.00
2019-03-05T01:27:49.467Z,981.25
2019-03-05T01:29:49.421Z,981.09
2019-03-05T01:31:49.144Z,980.87
2019-03-05T01:33:49.392Z,981.11
2019-03-05T01:35:49.432Z,981.30
2019-03-05T01:37:49.234Z,981.14
2019-03-05T01:39:49.864Z,981.10
2019-03-05T01:41:49.391Z,981.11
2019-03-05T01:43:49.133Z,981.03
2019-03-05T01:45:49.893Z,981.25
2019-03-05T01:47:49.306Z,981.27
2019-03-05T01:49:49.238Z,981.30
2019-03-05T01:51:49.727Z,981.06
2019-03-05T01:53:49.532Z,981.18
2019-03-05T01:55:49.752Z,981.21
2019-03-05T01:57:49.149Z,981.61
2019-03-05T01:59:49.778Z,981.35
2019-03-05T02:01:49.475Z,981.70
2019-03-05T02:03:49.285Z,981.52
2019-03-05T02:05:49.249Z,981.59
2019-03-05T02:07:49.514Z,981.28
2019-03-05T02:09:49.937Z,981.26
2019-03-05T02:11:49.457Z,981.67
2019-03-05T02:13:49.479Z,981.63
2019-03-05T02:15:49.352Z,981.34
2019-03-05T02:17:49.370Z,981.16
2019-03-05T02:19:49.386Z,981.29
2019-03-05T02:21:49.581Z,981.24
2019-03-05T02:23:49.809Z,981.40
2019-03-05T02:25:49.355Z,981.46
2019-03-05T02:27:49.417Z,981.22
2019-03-05T02:29:49.329Z,981.35
2019-03-05T02:31:49.355Z,981.61
2019-03-05T02:33:49.669Z,981.32
2019-03-05T02:35:49.474Z,981.54
2019-03-05T02:37:49.280Z,981.64
2019-03-05T02:39:49.619Z,981.52
2019-03-05T02:41:49.435Z,981.41
2019-03-05T02:43:49.580Z,981.13
2019-03-05T02:45:49.516Z,981.24
2019-03-05T02:47:49.441Z,981.43
2019-03-05T02:49:49.247Z,981.73
2019-03-05T02:51:49.317Z,981.10
2019-03-05T02:53:49.636Z,981.69
2019-03-05T02:55:49.715Z,981.57
2019-03-05T02:57:49.277Z,981.36
2019-03-05T02:59:49.494Z,981.45
2019-03-05T03:01:49.522Z,981.33
2019-03-05T03:03:49.308Z,981.24
2019-03-05T03:05:49.202Z,981.26
2019-03-05T03:07:49.451Z,981.21
2019-03-05T03:09:49.471Z,981.45
2019-03-05T03:11:49.487Z,981.77
2019-03-05T03:13:49.310Z,981.55
2019-03-05T03:15:49.566Z,981.76
2019-03-05T03:17:49.516Z,981.66
2019-03-05T03:19:49.424Z,981.50
2019-03-05T03:21:49.442Z,981.75
2019-03-05T03:23:49.239Z,981.34
2019-03-05T03:25:49.459Z,981.64
2019-03-05T03:27:49.771Z,981.54
2019-03-05T03:29:49.205Z,981.55
2019-03-05T03:31:49.692Z,981.68
2019-03-05T03:33:49.314Z,981.86
2019-03-05T03:35:49.521Z,981.60
2019-03-05T03:37:49.276Z,981.93
2019-03-05T03:39:49.739Z,981.91
2019-03-05T03:41:49.494Z,981.86
2019-03-05T03:43:49.525Z,981.74
2019-03-05T03:45:49.654Z,981.99
2019-03-05T03:47:49.478Z,981.53
2019-03-05T03:49:49.494Z,982.22
2019-03-05T03:51:51.407Z,981.84
2019-03-05T03:53:49.323Z,981.72
2019-03-05T03:55:49.480Z,981.98
2019-03-05T03:57:49.520Z,981.51
2019-03-05T03:59:49.753Z,981.95
2019-03-05T04:01:49.508Z,981.61
2019-03-05T04:03:49.380Z,981.79
2019-03-05T04:05:49.597Z,981.97
2019-03-05T04:07:49.812Z,982.09
2019-03-05T04:09:49.725Z,982.24
2019-03-05T04:11:49.470Z,981.90
2019-03-05T04:13:49.328Z,981.77
2019-03-05T04:15:49.754Z,981.73
2019-03-05T04:17:49.977Z,981.62
2019-03-05T04:19:49.834Z,982.01
2019-03-05T04:21:49.888Z,981.93
2019-03-05T04:23:49.504Z,982.01
2019-03-05T04:25:49.706Z,982.30
2019-03-05T04:27:49.308Z,982.24
2019-03-05T04:29:49.513Z,981.82
2019-03-05T04:31:49.530Z,982.24
2019-03-05T04:33:49.492Z,982.24
2019-03-05T04:35:49.858Z,982.35
2019-03-05T04:37:49.413Z,982.00
2019-03-05T04:39:49.377Z,982.14
2019-03-05T04:41:49.587Z,981.89
2019-03-05T04:43:49.344Z,982.31
2019-03-05T04:45:49.409Z,982.20
2019-03-05T04:47:49.548Z,982.33
2019-03-05T04:49:49.432Z,982.17
2019-03-05T04:51:49.643Z,982.15
2019-03-05T04:53:49.662Z,982.28
2019-03-05T04:55:49.545Z,982.11
2019-03-05T04:57:49.467Z,982.21
2019-03-05T04:59:49.907Z,982.26
2019-03-05T05:01:49.805Z,982.15
2019-03-05T05:03:49.514Z,982.34
2019-03-05T05:05:49.831Z,982.30
2019-03-05T05:07:49.506Z,982.39
2019-03-05T05:09:49.542Z,981.97
2019-03-05T05:11:49.532Z,981.79
2019-03-05T05:13:49.506Z,982.07
2019-03-05T05:15:49.579Z,981.89
2019-03-05T05:17:49.595Z,982.18
2019-03-05T05:19:49.387Z,981.95
2019-03-05T05:21:49.409Z,982.29
2019-03-05T05:23:49.643Z,982.13
2019-03-05T05:25:49.636Z,982.20
2019-03-05T05:27:49.651Z,982.02
2019-03-05T05:29:49.859Z,982.19
2019-03-05T05:31:49.674Z,981.88
2019-03-05T05:33:49.484Z,982.10
2019-03-05T05:35:49.905Z,982.39
2019-03-05T05:37:49.662Z,982.10
2019-03-05T05:39:49.726Z,981.92
2019-03-05T05:41:49.728Z,982.47
2019-03-05T05:43:49.537Z,982.40
2019-03-05T05:45:49.616Z,982.06
2019-03-05T05:47:49.457Z,982.42
2019-03-05T05:49:49.525Z,982.28
2019-03-05T05:51:49.485Z,982.32
2019-03-05T05:53:49.482Z,982.02
2019-03-05T05:55:49.691Z,982.08
2019-03-05T05:57:49.733Z,982.29
2019-03-05T05:59:49.737Z,982.23
2019-03-05T06:01:49.649Z,982.25
2019-03-05T06:03:49.394Z,981.91
2019-03-05T06:05:49.673Z,982.18
2019-03-05T06:07:49.893Z,981.99
2019-03-05T06:09:49.382Z,982.42
2019-03-05T06:11:49.706Z,982.28
2019-03-05T06:13:49.707Z,981.90
2019-03-05T06:15:49.616Z,982.24
2019-03-05T06:17:49.482Z,982.10
2019-03-05T06:19:49.757Z,981.90
2019-03-05T06:21:49.547Z,982.51
2019-03-05T06:23:50.133Z,982.08
2019-03-05T06:25:49.795Z,982.63
2019-03-05T06:27:49.522Z,982.17
2019-03-05T06:29:50.006Z,982.05
2019-03-05T06:31:49.619Z,982.29
2019-03-05T06:33:49.737Z,982.49
2019-03-05T06:35:49.731Z,982.43
2019-03-05T06:37:49.541Z,982.25
2019-03-05T06:39:49.550Z,982.13
2019-03-05T06:41:49.984Z,982.13
2019-03-05T06:43:49.607Z,982.23
2019-03-05T06:45:49.490Z,982.28
2019-03-05T06:47:49.469Z,982.07
2019-03-05T06:49:49.718Z,982.58
2019-03-05T06:51:49.684Z,982.39
2019-03-05T06:53:49.677Z,982.43
2019-03-05T06:55:49.755Z,982.65
2019-03-05T06:57:49.568Z,982.33
2019-03-05T06:59:50.211Z,982.39
2019-03-05T07:01:49.685Z,982.46
2019-03-05T07:03:49.653Z,982.21
2019-03-05T07:05:49.702Z,982.41
2019-03-05T07:08:03.958Z,982.24
2019-03-05T07:09:52.901Z,982.54
2019-03-05T07:13:52.974Z,982.48
2019-03-05T07:15:52.958Z,982.35
2019-03-05T07:19:57.995Z,982.01
2019-03-05T07:21:53.119Z,982.13
2019-03-05T07:25:52.900Z,982.35
2019-03-05T07:27:53.173Z,982.31
2019-03-05T07:31:53.343Z,982.30
2019-03-05T07:33:53.083Z,982.20
2019-03-05T07:37:52.981Z,982.40
2019-03-05T07:39:53.011Z,982.26
2019-03-05T07:43:53.160Z,982.04
2019-03-05T07:45:53.037Z,981.97
2019-03-05T07:49:53.068Z,982.32
2019-03-05T07:51:53.008Z,982.50
2019-03-05T07:55:53.204Z,982.20
2019-03-05T07:57:53.124Z,982.00
2019-03-05T08:01:53.146Z,982.27
2019-03-05T08:03:53.176Z,982.31
2019-03-05T08:07:53.293Z,982.29
2019-03-05T08:09:52.983Z,982.59
2019-03-05T08:13:53.179Z,982.56
2019-03-05T08:16:01.874Z,982.15
2019-03-05T08:19:53.122Z,982.57
2019-03-05T08:21:53.041Z,982.41
2019-03-05T08:25:53.067Z,982.17
2019-03-05T08:27:53.089Z,982.38
2019-03-05T08:31:53.122Z,982.12
2019-03-05T08:33:53.044Z,982.54
2019-03-05T08:37:53.129Z,982.09
2019-03-05T08:39:53.170Z,982.19
2019-03-05T08:43:54.361Z,982.27
2019-03-05T08:45:53.063Z,982.58
2019-03-05T08:49:53.086Z,982.47
2019-03-05T08:51:53.090Z,982.50
2019-03-05T08:55:53.149Z,982.47
2019-03-05T08:57:53.159Z,982.40
2019-03-05T09:01:53.206Z,982.33
2019-03-05T09:03:53.312Z,982.63
2019-03-05T09:07:53.033Z,982.48
2019-03-05T09:09:53.228Z,982.66
2019-03-05T09:13:53.038Z,982.75
2019-03-05T09:15:53.063Z,983.00
2019-03-05T09:19:53.201Z,982.87
2019-03-05T09:21:53.221Z,982.75
2019-03-05T09:25:52.985Z,982.98
2019-03-05T09:29:53.014Z,982.74
2019-03-05T09:31:53.142Z,982.78
2019-03-05T09:35:53.075Z,982.68
2019-03-05T09:37:53.066Z,982.86
2019-03-05T09:41:53.186Z,982.77
2019-03-05T09:43:53.213Z,982.80
2019-03-05T09:47:53.043Z,982.91
2019-03-05T09:49:53.179Z,982.64
2019-03-05T09:53:53.086Z,983.04
2019-03-05T09:55:53.247Z,983.26
2019-03-05T09:59:53.238Z,983.05
2019-03-05T10:01:53.226Z,982.88
2019-03-05T10:05:53.057Z,982.86
2019-03-05T10:07:53.056Z,983.37
2019-03-05T10:11:56.723Z,982.87
2019-03-05T10:13:53.145Z,983.29
2019-03-05T10:17:53.116Z,982.69
2019-03-05T10:19:53.104Z,982.54
2019-03-05T10:23:53.133Z,982.82
2019-03-05T10:25:53.155Z,983.26
2019-03-05T10:29:53.068Z,982.85
2019-03-05T10:31:53.091Z,983.05
2019-03-05T10:35:53.226Z,983.08
2019-03-05T10:39:53.146Z,983.29
2019-03-05T10:41:53.279Z,983.34
2019-03-05T10:45:53.294Z,982.97
2019-03-05T10:49:53.186Z,983.42
2019-03-05T10:51:53.198Z,983.56
2019-03-05T10:55:53.094Z,983.19
2019-03-05T10:57:53.342Z,983.47
2019-03-05T11:01:53.277Z,983.31
2019-03-05T11:03:53.295Z,983.16
2019-03-05T11:07:53.198Z,983.17
2019-03-05T11:09:53.194Z,982.97
2019-03-05T11:13:53.194Z,983.58
2019-03-05T11:15:53.180Z,983.27
2019-03-05T11:19:53.178Z,983.18
2019-03-05T11:21:53.188Z,983.18
2019-03-05T11:25:53.204Z,983.66
2019-03-05T11:27:53.283Z,983.35
2019-03-05T11:31:53.249Z,983.67
2019-03-05T11:33:53.248Z,983.61
2019-03-05T11:37:53.830Z,983.38
2019-03-05T11:39:55.345Z,983.52
2019-03-05T11:43:53.290Z,983.29
2019-03-05T11:45:53.330Z,983.27
2019-03-05T11:49:53.351Z,983.51
2019-03-05T11:51:53.366Z,983.49
2019-03-05T11:55:53.227Z,983.91
2019-03-05T11:57:53.539Z,983.35
2019-03-05T12:01:53.307Z,983.97
2019-03-05T12:03:53.334Z,983.54
2019-03-05T12:07:53.381Z,983.81
2019-03-05T12:09:53.353Z,983.67
2019-03-05T12:13:53.394Z,984.01
2019-03-05T12:15:53.293Z,983.66
2019-03-05T12:19:53.288Z,983.37
2019-03-05T12:21:53.327Z,983.63
2019-03-05T12:25:53.358Z,983.66
2019-03-05T12:29:53.284Z,983.84
2019-03-05T12:31:53.265Z,983.52
2019-03-05T12:35:53.201Z,983.79
2019-03-05T12:39:53.218Z,983.56
2019-03-05T12:41:53.216Z,983.32
2019-03-05T12:45:53.206Z,983.45
2019-03-05T12:49:53.394Z,983.71
2019-03-05T12:51:53.288Z,983.57
2019-03-05T12:59:53.336Z,983.80
2019-03-05T13:01:53.185Z,983.71
2019-03-05T13:05:53.251Z,983.89
2019-03-05T13:09:56.872Z,983.47
2019-03-05T13:11:53.523Z,983.52
2019-03-05T13:15:56.438Z,983.43
2019-03-05T13:19:53.736Z,983.74
2019-03-05T13:21:53.431Z,983.59
2019-03-05T13:25:53.376Z,983.72
2019-03-05T13:29:53.414Z,983.73
2019-03-05T13:31:53.441Z,983.49
2019-03-05T13:35:53.452Z,983.52
2019-03-05T13:39:54.957Z,983.74
2019-03-05T13:41:53.897Z,983.68
2019-03-05T13:45:53.293Z,983.76
2019-03-05T13:49:58.815Z,983.74
2019-03-05T13:51:56.080Z,983.97
2019-03-05T13:55:53.460Z,983.83
2019-03-05T13:59:53.509Z,983.81
2019-03-05T14:01:53.490Z,983.95
2019-03-05T14:05:53.410Z,983.80
2019-03-05T14:09:53.471Z,984.07
2019-03-05T14:11:53.351Z,983.89
2019-03-05T14:15:53.477Z,983.56
2019-03-05T14:19:53.518Z,983.74
2019-03-05T14:21:53.509Z,983.83
2019-03-05T14:25:53.918Z,983.73
2019-03-05T14:29:53.454Z,983.74
2019-03-05T14:31:53.490Z,984.04
2019-03-05T14:35:53.469Z,983.92
2019-03-05T14:39:53.509Z,984.08
2019-03-05T14:41:53.558Z,984.00
2019-03-05T14:45:53.601Z,984.09
2019-03-05T14:49:53.381Z,984.33
2019-03-05T14:51:53.398Z,984.39
2019-03-05T14:55:54.652Z,984.10
2019-03-05T14:59:53.458Z,984.25
2019-03-05T15:01:53.495Z,983.83
2019-03-05T15:05:53.564Z,984.27
2019-03-05T15:09:53.363Z,984.01
2019-03-05T15:11:53.395Z,984.19
2019-03-05T15:15:53.419Z,984.22
2019-03-05T15:17:53.465Z,984.72
2019-03-05T15:21:53.692Z,984.40
2019-03-05T15:23:53.576Z,984.45
2019-03-05T15:27:53.639Z,984.43
2019-03-05T15:29:53.491Z,984.35
2019-03-05T15:33:53.634Z,984.48
2019-03-05T15:35:53.445Z,984.21
2019-03-05T15:49:57.629Z,984.36
2019-03-05T15:51:57.272Z,984.60
2019-03-05T15:53:56.872Z,984.70
2019-03-05T15:55:57.496Z,984.46
2019-03-05T15:57:57.184Z,984.63
2019-03-05T15:59:56.848Z,984.60
2019-03-05T16:01:57.129Z,984.58
2019-03-05T16:03:56.879Z,984.61
2019-03-05T16:05:57.788Z,984.55
2019-03-05T16:07:57.370Z,984.75
2019-03-05T16:09:57.305Z,984.53
2019-03-05T16:11:56.979Z,984.84
2019-03-05T16:13:58.002Z,984.80
2019-03-05T16:15:57.204Z,985.11
2019-03-05T16:17:57.422Z,985.03
2019-03-05T16:19:57.019Z,985.07
2019-03-05T16:21:57.287Z,984.85
2019-03-05T16:23:57.040Z,985.06
2019-03-05T16:25:57.057Z,985.14
2019-03-05T16:27:56.759Z,985.03
2019-03-05T16:29:57.250Z,985.24
2019-03-05T16:31:56.892Z,985.34
2019-03-05T16:33:56.653Z,985.22
2019-03-05T16:35:56.906Z,985.41
2019-03-05T16:37:57.782Z,985.53
2019-03-05T16:39:56.937Z,985.15
2019-03-05T16:41:58.180Z,985.55
2019-03-05T16:43:57.372Z,984.93
2019-03-05T16:45:57.378Z,985.38
2019-03-05T16:47:57.265Z,985.18
2019-03-05T16:49:56.940Z,985.28
2019-03-05T16:51:57.350Z,985.61
2019-03-05T16:53:57.129Z,985.72
2019-03-05T16:55:57.431Z,985.23
2019-03-05T16:57:57.239Z,985.48
2019-03-05T16:59:57.053Z,985.72
2019-03-05T17:01:57.473Z,985.76
2019-03-05T17:03:57.689Z,985.77
2019-03-05T17:05:57.496Z,985.73
2019-03-05T17:07:57.207Z,985.98
2019-03-05T17:09:57.241Z,985.52
2019-03-05T17:11:57.216Z,985.50
2019-03-05T17:13:57.341Z,985.90
2019-03-05T17:15:57.143Z,985.89
2019-03-05T17:17:57.361Z,985.59
2019-03-05T17:19:56.966Z,985.81
2019-03-05T17:21:56.973Z,986.12
2019-03-05T17:23:56.988Z,985.85
2019-03-05T17:25:56.795Z,985.73
2019-03-05T17:27:56.913Z,986.28
2019-03-05T17:29:57.118Z,986.24
2019-03-05T17:31:57.032Z,986.04
2019-03-05T17:33:57.045Z,985.90
2019-03-05T17:35:57.057Z,986.66
2019-03-05T17:37:56.861Z,986.43
2019-03-05T17:39:57.392Z,986.28
2019-03-05T17:41:57.302Z,986.38
2019-03-05T17:43:57.402Z,986.08
2019-03-05T17:45:56.820Z,986.47
2019-03-05T17:47:56.925Z,986.52
2019-03-05T17:49:56.857Z,986.63
2019-03-05T17:51:56.942Z,986.47
2019-03-05T17:53:56.955Z,986.55
2019-03-05T17:55:56.970Z,986.75
2019-03-05T17:57:56.868Z,986.70
2019-03-05T17:59:57.404Z,986.59
2019-03-05T18:01:57.319Z,986.72
2019-03-05T18:03:57.424Z,986.77
2019-03-05T18:05:57.647Z,986.75
2019-03-05T18:07:57.238Z,986.95
2019-03-05T18:09:57.461Z,987.01
2019-03-05T18:11:57.759Z,986.85
2019-03-05T18:13:57.278Z,987.01
2019-03-05T18:15:57.499Z,986.95
2019-03-05T18:17:57.508Z,986.96
2019-03-05T18:19:57.385Z,987.21
2019-03-05T18:21:57.411Z,987.20
2019-03-05T18:23:57.423Z,986.84
2019-03-05T18:25:57.305Z,987.31
2019-03-05T18:27:57.366Z,987.45
2019-03-05T18:29:57.233Z,987.08
2019-03-05T18:31:57.318Z,986.92
2019-03-05T18:33:57.335Z,987.42
2019-03-05T18:35:57.281Z,987.45
2019-03-05T18:37:57.178Z,987.34
2019-03-05T18:39:57.427Z,986.84
2019-03-05T18:41:57.240Z,986.89
2019-03-05T18:43:57.377Z,987.20
2019-03-05T18:45:57.467Z,986.95
2019-03-05T18:47:57.470Z,987.16
2019-03-05T18:49:57.379Z,986.99
2019-03-05T18:51:57.244Z,987.54
2019-03-05T18:53:57.509Z,987.25
2019-03-05T18:55:57.521Z,987.03
2019-03-05T18:57:57.450Z,987.47
2019-03-05T18:59:57.748Z,987.49
2019-03-05T19:01:57.296Z,987.44
2019-03-05T19:03:57.380Z,987.14
2019-03-05T19:05:57.373Z,987.50
2019-03-05T19:07:57.387Z,987.49
2019-03-05T19:09:57.193Z,987.64
2019-03-05T19:11:57.292Z,987.50
2019-03-05T19:13:57.254Z,987.64
2019-03-05T19:15:57.434Z,987.82
2019-03-05T19:17:57.204Z,987.52
2019-03-05T19:19:57.457Z,988.04
2019-03-05T19:21:57.329Z,988.00
2019-03-05T19:23:57.356Z,987.94
2019-03-05T19:25:57.488Z,987.82
2019-03-05T19:27:57.705Z,987.71
2019-03-05T19:29:57.515Z,987.77
2019-03-05T19:31:57.434Z,987.83
2019-03-05T19:33:57.417Z,987.67
2019-03-05T19:35:57.551Z,988.07
2019-03-05T19:37:57.149Z,987.85
2019-03-05T19:39:57.274Z,987.70
2019-03-05T19:41:57.384Z,988.03
2019-03-05T19:43:57.464Z,988.13
2019-03-05T19:45:57.405Z,988.16
2019-03-05T19:47:57.176Z,988.36
2019-03-05T19:49:57.429Z,987.96
2019-03-05T19:51:57.336Z,988.03
2019-03-05T19:53:57.452Z,988.06
2019-03-05T19:55:57.459Z,988.17
2019-03-05T19:57:57.373Z,988.27
2019-03-05T19:59:57.378Z,988.27
2019-03-05T20:01:57.499Z,988.33
2019-03-05T20:03:57.508Z,988.27
2019-03-05T20:05:57.522Z,988.39
2019-03-05T20:07:57.543Z,988.35
2019-03-05T20:09:57.545Z,988.38
2019-03-05T20:11:57.558Z,988.32
2019-03-05T20:13:57.442Z,988.07
2019-03-05T20:15:57.584Z,988.16
2019-03-05T20:17:59.132Z,988.36
2019-03-05T20:19:57.350Z,988.38
2019-03-05T20:21:57.303Z,987.97
2019-03-05T20:23:57.297Z,987.99
2019-03-05T20:25:57.358Z,988.28
2019-03-05T20:27:57.396Z,988.63
2019-03-05T20:29:57.462Z,988.41
2019-03-05T20:31:57.236Z,988.24
2019-03-05T20:33:57.347Z,988.13
2019-03-05T20:35:57.291Z,988.34
2019-03-05T20:37:57.260Z,988.50
2019-03-05T20:39:57.510Z,988.51
2019-03-05T20:41:57.526Z,988.67
2019-03-05T20:43:57.410Z,988.39
2019-03-05T20:45:57.454Z,988.29
2019-03-05T20:47:57.417Z,988.29
2019-03-05T20:49:57.571Z,988.45
2019-03-05T20:51:57.373Z,988.38
2019-03-05T20:53:57.141Z,988.37
2019-03-05T20:55:57.172Z,988.71
2019-03-05T20:57:57.330Z,988.39
2019-03-05T20:59:57.127Z,988.79
2019-03-05T21:01:57.362Z,988.41
2019-03-05T21:03:57.201Z,988.63
2019-03-05T21:05:57.455Z,988.39
2019-03-05T21:07:57.267Z,988.55
2019-03-05T21:09:57.415Z,988.19
2019-03-05T21:11:57.403Z,988.40
2019-03-05T21:13:57.093Z,988.47
2019-03-05T21:15:57.014Z,988.68
2019-03-05T21:17:57.207Z,988.36
2019-03-05T21:19:57.062Z,988.68
2019-03-05T21:21:57.011Z,988.51
2019-03-05T21:23:57.155Z,988.52
2019-03-05T21:25:57.174Z,988.49
2019-03-05T21:27:57.100Z,988.64
2019-03-05T21:29:57.397Z,988.43
2019-03-05T21:31:57.211Z,988.50
2019-03-05T21:33:57.265Z,988.35
2019-03-05T21:35:57.148Z,988.71
2019-03-05T21:37:57.893Z,988.77
2019-03-05T21:39:57.099Z,988.64
2019-03-05T21:41:57.159Z,988.59
2019-03-05T21:43:57.008Z,988.30
2019-03-05T21:45:57.082Z,988.30
2019-03-05T21:47:57.295Z,988.38
2019-03-05T21:49:57.310Z,988.45
2019-03-05T21:51:57.107Z,988.58
2019-03-05T21:53:57.122Z,988.73
2019-03-05T21:55:57.132Z,988.68
2019-03-05T21:57:57.081Z,988.51
2019-03-05T21:59:57.168Z,988.78
2019-03-05T22:01:56.999Z,988.65
2019-03-05T22:03:57.090Z,988.57
2019-03-05T22:05:57.093Z,988.72
2019-03-05T22:07:57.204Z,988.45
2019-03-05T22:09:57.088Z,988.59
2019-03-05T22:11:57.225Z,988.56
2019-03-05T22:13:57.478Z,988.72
2019-03-05T22:15:57.458Z,988.73
2019-03-05T22:17:56.974Z,988.77
2019-03-05T22:19:57.277Z,988.84
2019-03-05T22:21:57.083Z,988.67
2019-03-05T22:23:57.211Z,988.61
2019-03-05T22:25:57.108Z,988.73
2019-03-05T22:27:57.239Z,988.57
2019-03-05T22:29:57.127Z,988.33
2019-03-05T22:31:57.074Z,988.66
2019-03-05T22:33:57.148Z,988.27
2019-03-05T22:35:57.362Z,988.55
2019-03-05T22:37:57.377Z,988.21
2019-03-05T22:39:57.087Z,988.63
2019-03-05T22:41:57.193Z,988.40
2019-03-05T22:43:57.132Z,988.91
2019-03-05T22:45:57.150Z,988.41
2019-03-05T22:47:57.227Z,988.34
2019-03-05T22:49:57.028Z,988.74
2019-03-05T22:51:57.255Z,988.60
2019-03-05T22:53:57.173Z,988.88
2019-03-05T22:55:57.282Z,988.50
2019-03-05T22:57:57.098Z,988.75
2019-03-05T22:59:56.990Z,988.57
2019-03-05T23:01:56.902Z,988.69
2019-03-05T23:03:57.115Z,988.96
2019-03-05T23:05:57.338Z,988.96
2019-03-05T23:07:57.348Z,988.57
2019-03-05T23:09:57.155Z,988.60
2019-03-05T23:11:57.062Z,988.84
2019-03-05T23:13:57.146Z,988.91
2019-03-05T23:15:57.403Z,988.75
2019-03-05T23:17:57.309Z,988.82
2019-03-05T23:19:57.004Z,988.38
2019-03-05T23:21:57.219Z,988.80
2019-03-05T23:23:57.252Z,988.92
2019-03-05T23:25:57.183Z,988.72
2019-03-05T23:27:57.254Z,988.45
2019-03-05T23:29:57.278Z,988.80
2019-03-05T23:31:57.015Z,988.40
2019-03-05T23:33:57.211Z,988.88
2019-03-05T23:35:57.211Z,988.44
2019-03-05T23:37:56.916Z,988.45
2019-03-05T23:39:57.039Z,988.60
2019-03-05T23:41:57.039Z,988.63
2019-03-05T23:43:57.082Z,988.62
2019-03-05T23:45:57.067Z,988.60
2019-03-05T23:47:57.173Z,988.55
2019-03-05T23:49:56.971Z,988.78
2019-03-05T23:51:56.982Z,988.51
2019-03-05T23:53:57.078Z,988.46
2019-03-05T23:55:57.218Z,988.48
2019-03-05T23:57:57.431Z,988.60
2019-03-05T23:59:56.985Z,988.47
